Spotswood, New Jersey
Current Conditions -  °F | °C
As of 3:55 AM on Friday 31 Oct 2014 (Local Time) from KLDJ Reporting Station
Clear Clear  
Wind Chill: 45°   Ceiling: Unl
Heat Index: 45°   Visibility: 10mi
Dew Point: 37°   Wind: 3mph
Humidity: 75%   Direction: 340°NNW
Pressure: 30.03"   Gusts: NA
Location:  40.4°N, 74.39°W
Report Text: KLDJ 310755Z AUTO 34003KT 10SM CLR 07/03 A3003 RMK AO2 T00720030
Loading
Personal Weather Stations






























Interactive Weather Map
Tropical Storm Tracking
New forecast layout! Learn more

10-Day Weather Forecast

Advertisements
Track Severe Weather on mobile